Jataizinho, Brazil
Current Conditions -  °F | °C
As of 9:00 AM on Sunday 21 Dec 2014 (Local Time) from SBLO Reporting Station
Broken Clouds Broken Clouds  
Wind Chill: 75°   Ceiling: 900
Heat Index: 75°   Visibility: 6mi
Dew Point: 72°   Wind: 8mph
Humidity: 89%   Direction: 40°NE
Pressure: 29.88"   Gusts: NA
Location:  23.25°S, 50.97°W
Report Text: SBLO 211100Z 04007KT 9999 BKN009 BKN012 24/22 Q1012
Loading
Personal Weather Stations






























Interactive Weather Map New forecast layout! Learn more

10-Day Weather Forecast

Advertisements
Track Severe Weather on mobile